Time;durP1;ratioP1;P1;durP2;ratioP2;P2;SDS_P1;SDS_P2;PMS_P1;PMS_P2;Temp;Humidity;BMP_temperature;BMP_pressure;BME280_temperature;BME280_humidity;BME280_pressure;Samples;Min_cycle;Max_cycle;Signal;HPM_P1;HPM_P2
2021/06/30 00:00:18;;;;;;;0.98;0.10;;;;;;;9.57;81.36;90622.19;4976067;28;20113;-87
2021/06/30 00:02:55;;;;;;;0.10;0.10;;;;;;;9.53;81.42;90642.13;4960803;28;20038;-86
2021/06/30 00:05:34;;;;;;;0.10;0.10;;;;;;;9.49;82.11;90632.72;4976046;28;20030;-88
2021/06/30 00:08:10;;;;;;;0.50;0.20;;;;;;;9.43;82.82;90628.81;4976050;28;20100;-87
2021/06/30 00:10:47;;;;;;;0.52;0.10;;;;;;;9.43;83.59;90602.81;4961154;28;20018;-87
2021/06/30 00:13:27;;;;;;;0.03;0.03;;;;;;;9.34;82.35;90590.69;4961222;28;20019;-87
2021/06/30 00:16:10;;;;;;;0.10;0.10;;;;;;;9.36;83.40;90624.16;4977502;28;20030;-88
2021/06/30 00:18:53;;;;;;;0.28;0.08;;;;;;;9.50;83.08;90634.97;4993599;28;20057;-88
2021/06/30 00:21:30;;;;;;;0.30;0.10;;;;;;;9.52;81.12;90648.44;4980059;28;20089;-87
2021/06/30 00:24:07;;;;;;;0.20;0.10;;;;;;;9.41;82.34;90636.97;4998691;28;20014;-90
2021/06/30 00:26:50;;;;;;;0.10;0.10;;;;;;;9.30;82.82;90623.63;5035233;28;20017;-89
2021/06/30 00:29:28;;;;;;;0.52;0.00;;;;;;;9.34;82.63;90636.75;5004119;28;20588;-87
2021/06/30 00:32:11;;;;;;;0.00;0.00;;;;;;;9.30;83.31;90646.28;4995041;28;20021;-88
2021/06/30 00:34:46;;;;;;;0.28;0.10;;;;;;;9.30;82.75;90652.25;5011530;28;20032;-88
2021/06/30 00:37:28;;;;;;;0.10;0.00;;;;;;;9.23;83.76;90656.47;5011380;28;20022;-87
2021/06/30 00:40:10;;;;;;;1.17;0.08;;;;;;;9.01;85.31;90648.03;4980600;28;20026;-87
2021/06/30 00:42:39;;;;;;;0.20;0.10;;;;;;;9.18;85.44;90654.06;4976422;28;20459;-87
2021/06/30 00:45:21;;;;;;;1.38;0.20;;;;;;;9.19;84.17;90658.22;4990866;28;20045;-88
2021/06/30 00:47:59;;;;;;;0.10;0.10;;;;;;;9.23;83.52;90646.06;4994661;28;20037;-87
2021/06/30 00:50:39;;;;;;;0.20;0.10;;;;;;;9.25;84.76;90646.50;5012035;28;20395;-88
2021/06/30 00:53:14;;;;;;;0.15;0.10;;;;;;;9.24;84.80;90657.97;5011338;28;20029;-88
2021/06/30 00:55:48;;;;;;;0.10;0.10;;;;;;;9.25;85.64;90656.88;4995207;28;20025;-86
2021/06/30 00:58:21;;;;;;;;;;;;;;;9.36;85.55;90660.56;4978921;28;20034;-88
2021/06/30 01:00:51;;;;;;;0.73;0.10;;;;;;;9.43;82.86;90652.97;5011712;28;19992;-88
2021/06/30 01:03:27;;;;;;;0.30;0.25;;;;;;;9.33;85.31;90646.41;5011917;28;20026;-88
2021/06/30 01:05:58;;;;;;;2.45;0.30;;;;;;;9.31;84.60;90647.78;5012376;28;20519;-88
2021/06/30 01:08:39;;;;;;;1.75;0.25;;;;;;;9.41;82.51;90644.00;4994521;28;20064;-88
2021/06/30 01:11:17;;;;;;;1.25;0.20;;;;;;;9.42;84.25;90638.47;4994819;28;20018;-87
2021/06/30 01:13:59;;;;;;;2.95;0.25;;;;;;;9.41;84.55;90644.75;4994818;28;20022;-88
2021/06/30 01:16:35;;;;;;;1.90;0.20;;;;;;;9.49;83.53;90646.47;4994918;28;20464;-88
2021/06/30 01:19:19;;;;;;;0.20;0.17;;;;;;;9.57;83.49;90644.84;5004949;28;20026;-88
2021/06/30 01:21:53;;;;;;;1.27;0.30;;;;;;;9.49;83.35;90643.88;4975323;28;20030;-87
2021/06/30 01:24:29;;;;;;;0.30;0.10;;;;;;;9.52;83.93;90637.28;4959392;28;20026;-88
2021/06/30 01:27:07;;;;;;;0.30;0.20;;;;;;;9.52;82.87;90638.03;4958913;28;20556;-88
2021/06/30 01:29:35;;;;;;;2.35;0.30;;;;;;;9.55;83.15;90632.16;4990927;28;20030;-88
2021/06/30 01:32:19;;;;;;;0.73;0.30;;;;;;;9.54;82.57;90625.47;4975316;28;20023;-86
2021/06/30 01:34:54;;;;;;;0.88;0.30;;;;;;;9.51;82.89;90631.31;4978422;28;20492;-88
2021/06/30 01:37:40;;;;;;;0.30;0.25;;;;;;;9.35;83.01;90630.44;4994525;28;20053;-87
2021/06/30 01:40:20;;;;;;;0.80;0.25;;;;;;;9.35;82.76;90630.44;4993475;28;20029;-86
2021/06/30 01:42:54;;;;;;;1.25;0.28;;;;;;;9.29;83.90;90621.34;4994562;28;20018;-88
2021/06/30 01:45:37;;;;;;;1.08;0.30;;;;;;;9.36;83.46;90639.75;4994522;28;20034;-88
2021/06/30 01:48:13;;;;;;;0.10;0.10;;;;;;;9.44;83.01;90631.09;4994163;28;20032;-87
2021/06/30 01:50:48;;;;;;;0.25;0.13;;;;;;;9.35;83.27;90633.06;4994300;28;20411;-87
2021/06/30 01:53:26;;;;;;;0.17;0.10;;;;;;;9.34;83.70;90629.69;5011973;28;20025;-87
2021/06/30 01:55:56;;;;;;;1.02;0.35;;;;;;;9.32;83.65;90624.06;4994731;28;20105;-88
2021/06/30 01:58:36;;;;;;;0.45;0.20;;;;;;;9.30;83.61;90620.28;4978119;28;20377;-88
2021/06/30 02:01:22;;;;;;;0.70;0.30;;;;;;;9.29;83.26;90634.34;4994147;28;20030;-88
2021/06/30 02:04:02;;;;;;;1.23;0.35;;;;;;;9.29;82.99;90623.94;4994117;28;20030;-88
2021/06/30 02:06:45;;;;;;;0.20;0.20;;;;;;;9.40;82.34;90625.03;5010253;28;20431;-88
2021/06/30 02:09:25;;;;;;;0.30;0.27;;;;;;;9.26;83.59;90625.38;4993858;28;20026;-87
2021/06/30 02:12:00;;;;;;;0.90;0.20;;;;;;;9.30;83.31;90615.84;4994132;28;20064;-88
2021/06/30 02:14:38;;;;;;;0.22;0.20;;;;;;;9.23;83.61;90610.44;4997295;28;20113;-88
2021/06/30 02:17:16;;;;;;;0.50;0.30;;;;;;;9.12;84.09;90608.56;4998116;28;20475;-87
2021/06/30 02:19:53;;;;;;;0.63;0.30;;;;;;;9.27;82.72;90607.94;5014778;28;20112;-88
2021/06/30 02:22:38;;;;;;;1.00;0.30;;;;;;;9.17;83.43;90614.31;4981380;28;20022;-88
2021/06/30 02:25:14;;;;;;;;;;;;;;;9.16;84.19;90610.22;5015519;28;20101;-88
2021/06/30 02:27:53;;;;;;;0.70;0.20;;;;;;;9.19;84.84;90608.81;5015149;28;19913;-89
2021/06/30 02:30:47;;;;;;;2.33;0.33;;;;;;;9.28;83.54;90596.44;5057594;23;20078;-89
2021/06/30 02:33:26;;;;;;;0.30;0.20;;;;;;;9.17;82.16;90601.31;4946151;28;20109;-89
2021/06/30 02:36:06;;;;;;;0.45;0.30;;;;;;;9.25;82.61;90599.69;4978187;28;20042;-88
2021/06/30 02:38:48;;;;;;;0.25;0.20;;;;;;;9.37;81.38;90591.13;4961955;28;20108;-88
2021/06/30 02:41:16;;;;;;;1.35;0.32;;;;;;;9.20;83.27;90584.31;4978619;28;20026;-88
2021/06/30 02:43:54;;;;;;;0.25;0.20;;;;;;;9.08;83.11;90596.25;4961019;28;20026;-88
2021/06/30 02:46:26;;;;;;;0.82;0.30;;;;;;;9.07;84.44;90593.97;4961703;28;20030;-88
2021/06/30 02:49:06;;;;;;;0.38;0.20;;;;;;;9.14;85.18;90585.63;4958158;28;20019;-89
2021/06/30 02:51:46;;;;;;;0.22;0.22;;;;;;;9.20;82.28;90592.13;4942719;28;20023;-88
2021/06/30 02:54:16;;;;;;;0.30;0.30;;;;;;;8.95;82.82;90594.72;4926931;28;20030;-89
2021/06/30 02:56:48;;;;;;;1.00;0.40;;;;;;;8.89;83.45;90601.22;4968580;28;20027;-88
2021/06/30 02:59:17;;;;;;;0.25;0.22;;;;;;;8.97;83.32;90599.59;4976766;28;20637;-87
2021/06/30 03:01:56;;;;;;;0.50;0.40;;;;;;;9.09;82.78;90600.34;4960793;28;20034;-88
2021/06/30 03:04:38;;;;;;;0.40;0.30;;;;;;;9.09;81.89;90604.81;5008999;28;20030;-88
2021/06/30 03:07:18;;;;;;;2.30;0.30;;;;;;;8.99;84.00;90611.19;4993485;28;20109;-87
2021/06/30 03:09:56;;;;;;;1.00;0.20;;;;;;;8.92;82.93;90608.38;4992217;28;20496;-87
2021/06/30 03:12:31;;;;;;;0.50;0.30;;;;;;;8.97;83.48;90605.53;5009019;28;20022;-88
2021/06/30 03:15:11;;;;;;;0.30;0.20;;;;;;;9.04;82.77;90605.00;4977230;28;20026;-88
2021/06/30 03:17:45;;;;;;;0.32;0.30;;;;;;;9.04;82.54;90600.56;5008908;28;20022;-88
2021/06/30 03:20:19;;;;;;;0.20;0.20;;;;;;;8.98;81.04;90595.94;4991955;28;20030;-88
2021/06/30 03:22:58;;;;;;;0.80;0.20;;;;;;;8.96;82.73;90596.25;5008665;28;20139;-88
2021/06/30 03:25:37;;;;;;;0.70;0.20;;;;;;;8.94;81.96;90592.44;4954935;28;20505;-88
2021/06/30 03:28:12;;;;;;;0.60;0.35;;;;;;;8.97;81.74;90584.75;4926556;28;20035;-88
2021/06/30 03:30:47;;;;;;;2.53;0.47;;;;;;;8.90;81.84;90589.72;4925717;28;20162;-87
2021/06/30 03:33:27;;;;;;;0.40;0.28;;;;;;;8.97;82.08;90587.34;4942196;28;20026;-88
2021/06/30 03:36:07;;;;;;;0.75;0.30;;;;;;;8.89;82.28;90583.03;4926625;28;20027;-88
2021/06/30 03:38:41;;;;;;;0.57;0.20;;;;;;;8.84;82.52;90591.06;4925781;28;20031;-88
2021/06/30 03:41:17;;;;;;;0.30;0.22;;;;;;;8.95;82.22;90592.13;4941867;28;20023;-88
2021/06/30 03:43:47;;;;;;;0.60;0.30;;;;;;;8.83;82.88;90579.13;4942090;28;20027;-87
2021/06/30 03:46:26;;;;;;;0.40;0.20;;;;;;;8.95;82.17;90586.19;4956995;28;20108;-89
2021/06/30 03:49:03;;;;;;;0.80;0.30;;;;;;;8.82;83.59;90593.19;4926133;28;20031;-87
2021/06/30 03:51:42;;;;;;;0.98;0.30;;;;;;;8.89;83.09;90592.66;4941808;28;20030;-88
2021/06/30 03:54:17;;;;;;;1.20;0.30;;;;;;;8.89;83.26;90601.22;4925978;28;20119;-88
2021/06/30 03:56:54;;;;;;;0.50;0.35;;;;;;;8.82;83.54;90598.41;4941923;28;20424;-87
2021/06/30 03:59:35;;;;;;;2.47;0.40;;;;;;;8.76;83.59;90594.50;4941071;28;20031;-87
2021/06/30 04:02:17;;;;;;;0.32;0.30;;;;;;;8.82;82.98;90601.00;4926104;28;20027;-88
2021/06/30 04:04:54;;;;;;;0.55;0.32;;;;;;;8.77;84.06;90604.56;4956954;28;20039;-88
2021/06/30 04:07:33;;;;;;;0.50;0.40;;;;;;;8.85;83.46;90595.16;4925763;28;20023;-88
2021/06/30 04:10:09;;;;;;;1.85;0.30;;;;;;;8.84;83.04;90604.78;4941397;28;20030;-88
2021/06/30 04:12:49;;;;;;;2.55;0.40;;;;;;;8.89;82.81;90605.66;4941564;28;20015;-88
2021/06/30 04:15:24;;;;;;;0.70;0.40;;;;;;;8.93;82.91;90611.72;4925725;28;20026;-88
2021/06/30 04:18:05;;;;;;;2.92;0.40;;;;;;;8.94;81.89;90603.63;4925175;28;20033;-88
2021/06/30 04:20:42;;;;;;;0.30;0.30;;;;;;;8.82;82.84;90598.41;4936318;28;20030;-88
2021/06/30 04:23:18;;;;;;;0.65;0.30;;;;;;;8.98;81.64;90612.28;4972132;28;20030;-87
2021/06/30 04:25:56;;;;;;;0.65;0.28;;;;;;;8.98;82.09;90599.28;4944688;28;20041;-88
2021/06/30 04:28:29;;;;;;;1.33;0.38;;;;;;;8.92;82.15;90616.16;4975788;28;20066;-88
2021/06/30 04:31:07;;;;;;;0.40;0.40;;;;;;;9.04;81.64;90613.56;4975492;28;20034;-88
2021/06/30 04:33:46;;;;;;;1.10;0.30;;;;;;;9.14;81.76;90617.56;4959204;28;20022;-88
2021/06/30 04:36:21;;;;;;;0.40;0.30;;;;;;;9.23;80.93;90609.69;4975609;28;20030;-88
2021/06/30 04:38:54;;;;;;;0.70;0.38;;;;;;;9.20;80.90;90616.28;4954840;28;20037;-86
2021/06/30 04:41:23;;;;;;;1.33;0.50;;;;;;;9.23;81.54;90614.88;4972343;28;20026;-88
2021/06/30 04:43:52;;;;;;;0.75;0.35;;;;;;;9.31;81.09;90616.59;4974655;28;20022;-88
2021/06/30 04:46:22;;;;;;;0.68;0.40;;;;;;;9.42;79.85;90611.69;4991338;28;20531;-86
2021/06/30 04:48:51;;;;;;;1.15;0.30;;;;;;;9.31;80.81;90616.59;4958333;28;20038;-87
2021/06/30 04:51:17;;;;;;;0.45;0.40;;;;;;;9.38;80.28;90609.00;4958800;28;20029;-87
2021/06/30 04:53:47;;;;;;;0.50;0.38;;;;;;;9.33;80.38;90611.84;4974976;28;20480;-87
2021/06/30 04:56:16;;;;;;;0.28;0.20;;;;;;;9.30;80.35;90609.88;4958524;28;20117;-87
2021/06/30 04:58:45;;;;;;;1.35;0.40;;;;;;;9.27;81.04;90610.53;4940063;28;20030;-87
2021/06/30 05:01:12;;;;;;;0.77;0.30;;;;;;;9.30;80.41;90612.47;4939404;28;20070;-88
2021/06/30 05:03:41;;;;;;;0.30;0.20;;;;;;;9.29;81.14;90619.53;4955454;28;20507;-87
2021/06/30 05:06:08;;;;;;;0.77;0.30;;;;;;;9.37;80.31;90614.53;4939244;28;20039;-88
2021/06/30 05:08:39;;;;;;;0.70;0.30;;;;;;;9.47;79.88;90620.06;4955598;28;20027;-88
2021/06/30 05:11:04;;;;;;;0.63;0.30;;;;;;;9.55;81.10;90618.41;4955020;28;20117;-86
2021/06/30 05:13:37;;;;;;;0.15;0.10;;;;;;;9.73;79.57;90618.91;4971593;28;20027;-87
2021/06/30 05:16:07;;;;;;;0.38;0.20;;;;;;;9.76;80.37;90610.44;4955921;28;20072;-87
2021/06/30 05:18:41;;;;;;;0.57;0.32;;;;;;;9.92;80.29;90615.72;4955149;28;20030;-87
2021/06/30 05:21:08;;;;;;;0.60;0.30;;;;;;;10.03;79.93;90620.13;4957489;28;20034;-88
2021/06/30 05:23:34;;;;;;;0.93;0.15;;;;;;;10.11;80.04;90612.50;4957250;28;20022;-88
2021/06/30 05:26:05;;;;;;;1.77;0.30;;;;;;;10.24;80.03;90609.50;4958059;28;20431;-87
2021/06/30 05:28:34;;;;;;;0.22;0.20;;;;;;;10.17;79.79;90604.09;4942986;28;20109;-87
2021/06/30 05:31:06;;;;;;;0.10;0.10;;;;;;;10.08;80.34;90602.75;4958062;28;20081;-88
2021/06/30 05:33:37;;;;;;;0.10;0.03;;;;;;;10.04;79.62;90598.22;4970684;28;20073;-88
2021/06/30 05:36:05;;;;;;;0.75;0.20;;;;;;;9.95;80.96;90607.25;4939804;28;20027;-87
2021/06/30 05:38:33;;;;;;;0.88;0.20;;;;;;;9.82;81.88;90596.88;4939577;28;20023;-87
2021/06/30 05:41:04;;;;;;;0.25;0.10;;;;;;;9.83;81.36;90600.25;4938732;28;20073;-87
2021/06/30 05:43:38;;;;;;;0.20;0.20;;;;;;;9.88;80.33;90602.59;4923005;28;20030;-87
2021/06/30 05:46:07;;;;;;;;;;;;;;;9.79;79.88;90615.00;4939966;28;20065;-86
2021/06/30 05:48:38;;;;;;;0.25;0.20;;;;;;;9.64;79.94;90607.88;4989947;28;19949;-88
2021/06/30 05:51:08;;;;;;;0.30;0.10;;;;;;;9.51;81.16;90602.69;4962460;28;20080;-87
2021/06/30 05:53:38;;;;;;;0.55;0.22;;;;;;;9.47;80.60;90614.84;4977504;28;20494;-88
2021/06/30 05:56:04;;;;;;;1.08;0.28;;;;;;;9.41;79.88;90605.00;4959572;28;20030;-87
2021/06/30 05:58:30;;;;;;;0.40;0.25;;;;;;;9.36;80.87;90605.94;4951662;28;20396;-88
2021/06/30 06:01:02;;;;;;;0.68;0.30;;;;;;;9.35;81.49;90601.84;4977781;28;20117;-87
2021/06/30 06:03:29;;;;;;;0.50;0.10;;;;;;;9.33;80.62;90609.22;4961370;28;20027;-87
2021/06/30 06:05:57;;;;;;;0.38;0.38;;;;;;;9.33;80.23;90609.22;4958601;28;20106;-87
2021/06/30 06:08:22;;;;;;;0.47;0.10;;;;;;;9.38;80.89;90609.00;4942216;28;20034;-88
2021/06/30 06:10:49;;;;;;;0.75;0.13;;;;;;;9.25;80.13;90597.84;4941963;28;20109;-87
2021/06/30 06:13:24;;;;;;;0.85;0.30;;;;;;;9.28;80.08;90601.63;4958367;28;20014;-88
2021/06/30 06:15:51;;;;;;;0.30;0.20;;;;;;;9.07;79.80;90599.91;4992571;28;20026;-87
2021/06/30 06:18:21;;;;;;;0.45;0.25;;;;;;;9.03;79.98;90596.44;4977761;28;20026;-87
2021/06/30 06:20:50;;;;;;;0.47;0.20;;;;;;;9.16;80.58;90604.25;4986807;28;20029;-88
2021/06/30 06:23:15;;;;;;;0.20;0.20;;;;;;;9.04;81.04;90595.38;4978584;28;20170;-87
2021/06/30 06:25:49;;;;;;;0.82;0.30;;;;;;;9.09;79.65;90589.97;4962827;28;20027;-87
2021/06/30 06:28:21;;;;;;;0.32;0.20;;;;;;;9.06;80.36;90585.41;4942964;28;20030;-87
2021/06/30 06:30:49;;;;;;;0.75;0.22;;;;;;;9.08;80.92;90567.66;4958336;28;20035;-87
2021/06/30 06:33:21;;;;;;;0.20;0.20;;;;;;;9.22;80.77;90577.72;4958550;28;20456;-88
2021/06/30 06:35:48;;;;;;;1.17;0.30;;;;;;;9.22;80.25;90571.75;4927649;28;20054;-87
2021/06/30 06:38:17;;;;;;;0.45;0.35;;;;;;;9.31;80.64;90574.97;4926210;28;20034;-88
2021/06/30 06:40:49;;;;;;;0.20;0.20;;;;;;;9.41;80.81;90573.78;4942003;28;20436;-88
2021/06/30 06:43:17;;;;;;;0.43;0.30;;;;;;;9.45;79.96;90580.59;4942496;28;20023;-88
2021/06/30 06:45:50;;;;;;;0.90;0.30;;;;;;;9.56;79.84;90576.44;4926216;28;20030;-88
2021/06/30 06:48:18;;;;;;;0.32;0.20;;;;;;;9.62;79.03;90584.03;4958293;28;20030;-88
2021/06/30 06:50:48;;;;;;;0.22;0.22;;;;;;;9.58;80.47;90576.88;4943688;28;20022;-87
2021/06/30 06:53:18;;;;;;;0.40;0.30;;;;;;;9.69;79.23;90581.63;4942274;28;20046;-87
2021/06/30 06:55:48;;;;;;;1.92;0.38;;;;;;;9.63;80.28;90588.16;4942797;28;20023;-88
2021/06/30 06:58:18;;;;;;;0.70;0.30;;;;;;;9.59;79.27;90585.44;4958670;28;20026;-87
2021/06/30 07:00:48;;;;;;;1.85;0.30;;;;;;;9.65;79.81;90591.19;4971410;28;20026;-87
2021/06/30 07:03:16;;;;;;;0.30;0.30;;;;;;;9.67;80.02;90602.00;4973179;28;20399;-88
2021/06/30 07:05:41;;;;;;;0.73;0.32;;;;;;;9.86;78.21;90599.59;4966869;28;20094;-87
2021/06/30 07:08:08;;;;;;;1.13;0.30;;;;;;;9.90;79.02;90599.69;4956755;28;20023;-88
2021/06/30 07:10:35;;;;;;;1.90;0.40;;;;;;;10.03;78.36;90586.28;4958186;28;20027;-87
2021/06/30 07:13:01;;;;;;;0.60;0.30;;;;;;;9.95;78.57;90599.44;4941345;28;20074;-87
2021/06/30 07:15:30;;;;;;;0.50;0.35;;;;;;;10.04;78.24;90602.66;4946012;28;20030;-87
2021/06/30 07:18:01;;;;;;;4.15;0.50;;;;;;;9.98;78.90;90596.91;4951764;28;20034;-87
2021/06/30 07:20:27;;;;;;;0.60;0.60;;;;;;;9.99;77.36;90598.44;4956949;28;20034;-86
2021/06/30 07:22:53;;;;;;;0.25;0.20;;;;;;;9.90;78.24;90599.69;4933676;28;20054;-88
2021/06/30 07:25:26;;;;;;;0.95;0.30;;;;;;;10.06;77.76;90606.44;4958272;28;20034;-87
2021/06/30 07:27:52;;;;;;;0.50;0.20;;;;;;;10.27;77.63;90605.50;4977029;28;20065;-87
2021/06/30 07:30:19;;;;;;;0.40;0.30;;;;;;;10.21;78.19;90597.16;4976422;28;20412;-87
2021/06/30 07:32:46;;;;;;;0.30;0.22;;;;;;;10.37;78.38;90599.81;4960783;28;20026;-87
2021/06/30 07:35:12;;;;;;;0.45;0.20;;;;;;;10.44;77.98;90597.41;4978032;28;20066;-87
2021/06/30 07:37:39;;;;;;;0.50;0.20;;;;;;;10.49;76.83;90610.19;4976337;28;20138;-87
2021/06/30 07:40:05;;;;;;;1.13;0.30;;;;;;;10.57;77.07;90610.38;4968562;28;20435;-87
2021/06/30 07:42:31;;;;;;;0.30;0.30;;;;;;;10.59;76.06;90605.56;4966618;28;20026;-87
2021/06/30 07:44:57;;;;;;;0.82;0.20;;;;;;;10.57;76.82;90610.38;4976225;28;20026;-87
2021/06/30 07:47:22;;;;;;;0.30;0.30;;;;;;;10.76;76.80;90613.81;4973598;28;20023;-86
2021/06/30 07:49:48;;;;;;;0.55;0.40;;;;;;;10.65;76.30;90617.25;4957042;28;20034;-87
2021/06/30 07:52:14;;;;;;;1.13;0.50;;;;;;;10.61;76.54;90617.19;4963940;28;20505;-88
2021/06/30 07:54:39;;;;;;;1.13;0.57;;;;;;;10.49;77.13;90628.44;4960161;28;20026;-86
2021/06/30 07:57:05;;;;;;;0.90;0.45;;;;;;;10.51;76.71;90623.63;4958922;28;20023;-87
2021/06/30 07:59:30;;;;;;;1.20;0.32;;;;;;;10.62;76.46;90625.75;4992866;28;20034;-88
2021/06/30 08:01:56;;;;;;;0.50;0.30;;;;;;;10.81;75.66;90638.13;4975472;28;20022;-89
2021/06/30 08:04:21;;;;;;;0.55;0.40;;;;;;;11.16;75.48;90633.75;4953704;28;20544;-88
2021/06/30 08:06:48;;;;;;;0.35;0.35;;;;;;;11.23;74.46;90620.13;4946278;28;20043;-86
2021/06/30 08:09:14;;;;;;;0.30;0.30;;;;;;;11.41;75.59;90636.94;4939992;28;20709;-88
2021/06/30 08:11:40;;;;;;;0.30;0.30;;;;;;;11.44;76.30;90628.41;4934259;28;20026;-85
2021/06/30 08:14:05;;;;;;;0.63;0.40;;;;;;;11.29;74.62;90629.19;4976929;28;20472;-86
2021/06/30 08:16:31;;;;;;;0.70;0.35;;;;;;;11.12;74.20;90617.25;4959038;28;20033;-87
2021/06/30 08:18:56;;;;;;;0.43;0.30;;;;;;;11.12;75.68;90629.56;4975195;28;20378;-88
2021/06/30 08:21:23;;;;;;;2.20;0.55;;;;;;;11.04;75.24;90622.66;4952093;28;20022;-88
2021/06/30 08:23:49;;;;;;;1.10;0.50;;;;;;;11.10;75.34;90629.16;4958762;28;20018;-87
2021/06/30 08:26:15;;;;;;;0.85;0.40;;;;;;;10.88;75.12;90636.44;4970403;28;20034;-87
2021/06/30 08:28:40;;;;;;;1.10;0.40;;;;;;;10.83;74.51;90641.91;4971350;28;20058;-87
2021/06/30 08:31:06;;;;;;;1.33;0.68;;;;;;;10.74;76.31;90633.47;5038388;23;20072;-87
2021/06/30 08:33:31;;;;;;;1.55;0.60;;;;;;;10.63;75.74;90635.06;4977615;28;20254;-88
2021/06/30 08:35:57;;;;;;;0.55;0.47;;;;;;;10.73;75.57;90624.16;4977389;28;20495;-87
2021/06/30 08:38:23;;;;;;;0.52;0.40;;;;;;;10.75;74.74;90627.19;4993164;28;20039;-87
2021/06/30 08:40:52;;;;;;;0.32;0.32;;;;;;;10.79;75.42;90635.09;4957550;28;20124;-88
2021/06/30 08:43:18;;;;;;;1.42;0.50;;;;;;;10.88;74.42;90626.00;4973810;28;20458;-88
2021/06/30 08:45:43;;;;;;;1.92;1.02;;;;;;;10.81;74.71;90628.44;4989693;28;20081;-87
2021/06/30 08:48:08;;;;;;;0.60;0.43;;;;;;;10.79;74.66;90632.50;4990143;28;20030;-87
2021/06/30 08:50:35;;;;;;;0.98;0.60;;;;;;;10.88;74.62;90643.50;4987826;28;20022;-87
2021/06/30 08:53:01;;;;;;;0.70;0.45;;;;;;;11.14;73.57;90638.56;4957188;28;20037;-88
2021/06/30 08:55:26;;;;;;;1.08;0.60;;;;;;;11.35;72.93;90633.06;4979808;28;20444;-87
2021/06/30 08:57:52;;;;;;;1.55;0.70;;;;;;;11.45;73.25;90637.78;4977170;28;20021;-87
2021/06/30 09:00:17;;;;;;;5.40;1.10;;;;;;;11.78;73.11;90634.00;4976452;28;20156;-87
2021/06/30 09:02:43;;;;;;;66.78;23.75;;;;;;;11.77;71.21;90627.28;5009784;28;20095;-87
2021/06/30 09:05:24;;;;;;;6.38;2.03;;;;;;;12.01;71.67;90641.19;4976749;28;20021;-87
2021/06/30 09:07:51;;;;;;;1.15;0.60;;;;;;;12.04;72.33;90643.13;4994758;28;20033;-88
2021/06/30 09:10:46;;;;;;;1.00;0.60;;;;;;;12.06;70.53;90639.06;4992564;28;20026;-87
2021/06/30 09:13:19;;;;;;;1.52;0.80;;;;;;;11.96;71.21;90640.38;4976419;28;20037;-87
2021/06/30 09:15:45;;;;;;;0.60;0.52;;;;;;;12.39;70.82;90641.19;5011229;28;20049;-87
2021/06/30 09:18:27;;;;;;;1.70;0.47;;;;;;;12.52;72.10;90641.06;4976665;28;20088;-86
2021/06/30 09:21:17;;;;;;;0.40;0.38;;;;;;;12.73;72.09;90632.84;4976851;28;20037;-87
2021/06/30 09:24:17;;;;;;;0.40;0.40;;;;;;;12.30;69.92;90632.06;5011745;28;20484;-87
2021/06/30 09:26:54;;;;;;;0.60;0.50;;;;;;;12.86;68.96;90619.25;5013392;28;20121;-86
2021/06/30 09:29:22;;;;;;;2.45;1.23;;;;;;;12.85;71.11;90615.13;4980545;28;20392;-87
2021/06/30 09:31:51;;;;;;;1.20;0.50;;;;;;;12.62;70.47;90616.97;4983674;28;20065;-87
2021/06/30 09:34:26;;;;;;;1.63;0.57;;;;;;;12.10;70.28;90613.03;4961740;28;20488;-86
2021/06/30 09:37:01;;;;;;;0.50;0.45;;;;;;;11.98;70.46;90621.75;4961114;28;20515;-86
2021/06/30 09:39:26;;;;;;;;;;;;;;;11.87;71.19;90631.22;4962582;28;20026;-86
2021/06/30 09:42:12;;;;;;;0.85;0.52;;;;;;;12.03;71.02;90625.94;4976957;28;19956;-86
2021/06/30 09:44:38;;;;;;;1.77;0.57;;;;;;;11.98;70.67;90626.19;4977462;28;20096;-87
2021/06/30 09:47:05;;;;;;;1.02;0.73;;;;;;;12.17;71.41;90624.38;4977211;28;20026;-86
2021/06/30 09:49:32;;;;;;;2.35;0.70;;;;;;;12.31;71.23;90628.34;4976918;28;20522;-86
2021/06/30 09:52:18;;;;;;;3.22;0.98;;;;;;;12.07;70.26;90629.38;4976904;28;20364;-86
2021/06/30 09:54:46;;;;;;;2.28;0.63;;;;;;;11.69;70.80;90642.00;4977482;28;20084;-86
2021/06/30 09:57:15;;;;;;;0.60;0.50;;;;;;;11.71;71.82;90649.50;4980612;28;20065;-86
2021/06/30 09:59:43;;;;;;;2.05;0.60;;;;;;;11.43;73.67;90645.19;4995650;28;20030;-86
2021/06/30 10:02:11;;;;;;;2.92;0.70;;;;;;;11.42;73.92;90648.88;4986694;28;20034;-86
2021/06/30 10:04:45;;;;;;;0.88;0.60;;;;;;;11.43;73.96;90644.41;4978245;28;20030;-86
2021/06/30 10:07:13;;;;;;;1.17;0.80;;;;;;;11.82;73.63;90639.28;4995893;28;20029;-86
2021/06/30 10:10:05;;;;;;;0.65;0.60;;;;;;;12.52;71.05;90643.69;4979827;28;20488;-86
2021/06/30 10:12:32;;;;;;;2.75;0.60;;;;;;;12.72;69.76;90637.31;4995853;28;20056;-87
2021/06/30 10:14:59;;;;;;;1.02;0.68;;;;;;;13.08;69.15;90640.53;5013338;28;20037;-87
2021/06/30 10:17:25;;;;;;;0.93;0.43;;;;;;;13.27;66.24;90637.88;5012012;28;20108;-86
2021/06/30 10:19:53;;;;;;;1.38;0.80;;;;;;;13.19;66.93;90644.06;4979491;28;20443;-86
2021/06/30 10:22:24;;;;;;;1.77;0.70;;;;;;;13.26;65.24;90633.00;4979661;28;20026;-86
2021/06/30 10:24:49;;;;;;;2.10;0.63;;;;;;;13.54;65.21;90632.66;4979533;28;20030;-87
2021/06/30 10:27:15;;;;;;;0.68;0.60;;;;;;;13.44;66.17;90638.50;4979634;28;20052;-89
2021/06/30 10:29:46;;;;;;;1.70;0.73;;;;;;;13.50;67.49;90630.00;5012306;28;20026;-86
2021/06/30 10:32:14;;;;;;;1.73;0.57;;;;;;;13.42;64.18;90630.22;4948105;28;20073;-87
2021/06/30 10:34:41;;;;;;;2.47;0.55;;;;;;;13.12;66.52;90638.72;4975605;28;20078;-86
2021/06/30 10:37:28;;;;;;;2.30;0.55;;;;;;;13.23;65.01;90644.13;4993425;28;20480;-86
2021/06/30 10:39:54;;;;;;;0.75;0.60;;;;;;;12.72;65.47;90644.38;4975766;28;20033;-88
2021/06/30 10:42:34;;;;;;;1.40;0.60;;;;;;;12.87;67.08;90641.69;4975219;28;20049;-87
2021/06/30 10:45:04;;;;;;;1.27;0.70;;;;;;;12.74;66.86;90645.56;4992249;28;20030;-87
2021/06/30 10:47:39;;;;;;;1.83;0.70;;;;;;;12.65;67.65;90642.44;4975948;28;20033;-86
2021/06/30 10:50:32;;;;;;;1.00;0.57;;;;;;;12.62;68.64;90654.31;4975270;28;20033;-87
2021/06/30 10:53:02;;;;;;;1.92;0.60;;;;;;;12.55;70.22;90638.50;4974293;28;20172;-87
2021/06/30 10:55:32;;;;;;;0.70;0.50;;;;;;;12.75;68.69;90647.06;4981459;28;20522;-87
2021/06/30 10:58:11;;;;;;;2.05;0.60;;;;;;;12.47;68.85;90641.31;4994713;28;20043;-87
2021/06/30 11:00:41;;;;;;;2.38;0.60;;;;;;;12.23;70.86;90647.63;4994708;28;20538;-86
2021/06/30 11:03:37;;;;;;;1.02;0.50;;;;;;;12.23;71.73;90648.38;4995323;28;20395;-87
2021/06/30 11:06:15;;;;;;;2.80;0.60;;;;;;;11.97;74.02;90651.56;5012420;28;20113;-88
2021/06/30 11:08:51;;;;;;;0.93;0.55;;;;;;;12.20;73.13;90644.56;5012682;28;20052;-87
2021/06/30 11:11:46;;;;;;;1.02;0.63;;;;;;;12.31;72.42;90636.94;5011465;28;20048;-86
2021/06/30 11:14:15;;;;;;;2.08;0.60;;;;;;;12.27;70.71;90638.75;5013201;28;20033;-86
2021/06/30 11:16:46;;;;;;;0.70;0.60;;;;;;;12.22;71.74;90644.22;5010845;28;20030;-86
2021/06/30 11:19:18;;;;;;;0.98;0.60;;;;;;;12.34;71.10;90638.88;5012086;28;20030;-86
2021/06/30 11:21:55;;;;;;;0.50;0.50;;;;;;;12.13;72.10;90641.81;5012276;28;20033;-87
2021/06/30 11:24:35;;;;;;;0.80;0.50;;;;;;;12.14;71.65;90642.56;5010552;28;20164;-86
2021/06/30 11:27:24;;;;;;;1.05;0.65;;;;;;;11.89;72.80;90640.22;4992197;28;20105;-86
2021/06/30 11:30:02;;;;;;;1.23;0.90;;;;;;;11.73;73.91;90636.84;4974757;28;20030;-87
2021/06/30 11:32:39;;;;;;;1.75;0.80;;;;;;;11.57;72.78;90641.38;5010527;28;20026;-86
2021/06/30 11:35:19;;;;;;;1.33;0.70;;;;;;;11.69;73.37;90641.25;5011709;28;20026;-86
2021/06/30 11:37:48;;;;;;;1.48;0.77;;;;;;;11.67;73.43;90639.00;5011711;28;20283;-86
2021/06/30 11:42:49;;;;;;;1.30;0.75;;;;;;;12.43;71.12;90642.00;5010552;28;20042;-87
2021/06/30 11:45:25;;;;;;;1.50;0.70;;;;;;;12.81;71.25;90640.47;4993827;28;20396;-86
2021/06/30 11:47:54;;;;;;;1.15;0.70;;;;;;;12.97;68.08;90631.75;4994479;28;20029;-87
2021/06/30 11:50:32;;;;;;;1.00;0.70;;;;;;;13.12;67.35;90625.66;4993602;28;20088;-86
2021/06/30 11:52:58;;;;;;;1.00;0.70;;;;;;;13.14;66.47;90626.03;4994313;28;20040;-87
2021/06/30 11:55:33;;;;;;;1.38;0.80;;;;;;;13.32;68.26;90610.66;4988607;28;20109;-86
2021/06/30 11:58:00;;;;;;;2.85;0.70;;;;;;;13.24;66.69;90611.66;4960187;28;20037;-86
2021/06/30 12:00:30;;;;;;;2.15;0.85;;;;;;;13.09;65.97;90618.50;4958610;28;20030;-86
2021/06/30 12:03:00;;;;;;;2.38;0.80;;;;;;;12.96;67.12;90606.69;4959075;28;20049;-87
2021/06/30 12:05:27;;;;;;;1.83;1.00;;;;;;;13.02;67.23;90613.91;4959536;28;20030;-86
2021/06/30 12:07:56;;;;;;;3.22;0.90;;;;;;;13.21;68.25;90605.22;4942881;28;20630;-86